sensor_id;sensor_type;location;lat;lon;timestamp;P1;durP1;ratioP1;P2;durP2;ratioP2
16270;SDS011;8243;49.048;8.396;2023-03-24T00:02:08;2.77;;;2.57;;
16270;SDS011;8243;49.048;8.396;2023-03-24T00:04:34;2.73;;;2.53;;
16270;SDS011;8243;49.048;8.396;2023-03-24T00:07:00;2.73;;;2.53;;
16270;SDS011;8243;49.048;8.396;2023-03-24T00:09:27;3.73;;;2.40;;
16270;SDS011;8243;49.048;8.396;2023-03-24T00:11:56;3.93;;;2.50;;
16270;SDS011;8243;49.048;8.396;2023-03-24T00:14:22;3.47;;;2.67;;
16270;SDS011;8243;49.048;8.396;2023-03-24T00:16:48;3.13;;;2.67;;
16270;SDS011;8243;49.048;8.396;2023-03-24T00:19:14;5.70;;;2.60;;
16270;SDS011;8243;49.048;8.396;2023-03-24T00:21:41;2.60;;;2.40;;
16270;SDS011;8243;49.048;8.396;2023-03-24T00:24:08;3.43;;;2.60;;
16270;SDS011;8243;49.048;8.396;2023-03-24T00:26:36;3.30;;;2.70;;
16270;SDS011;8243;49.048;8.396;2023-03-24T00:29:03;4.27;;;2.73;;
16270;SDS011;8243;49.048;8.396;2023-03-24T00:31:31;3.27;;;2.60;;
16270;SDS011;8243;49.048;8.396;2023-03-24T00:33:57;2.60;;;2.30;;
16270;SDS011;8243;49.048;8.396;2023-03-24T00:36:23;2.80;;;2.53;;
16270;SDS011;8243;49.048;8.396;2023-03-24T00:38:50;3.00;;;2.60;;
16270;SDS011;8243;49.048;8.396;2023-03-24T00:41:17;2.80;;;2.27;;
16270;SDS011;8243;49.048;8.396;2023-03-24T00:43:47;3.00;;;2.10;;
16270;SDS011;8243;49.048;8.396;2023-03-24T00:46:14;3.33;;;2.60;;
16270;SDS011;8243;49.048;8.396;2023-03-24T00:48:52;2.70;;;2.50;;
16270;SDS011;8243;49.048;8.396;2023-03-24T00:51:25;3.90;;;2.50;;
16270;SDS011;8243;49.048;8.396;2023-03-24T00:53:55;3.27;;;2.50;;
16270;SDS011;8243;49.048;8.396;2023-03-24T00:56:22;3.40;;;2.60;;
16270;SDS011;8243;49.048;8.396;2023-03-24T00:58:53;2.93;;;2.63;;
16270;SDS011;8243;49.048;8.396;2023-03-24T01:01:21;4.17;;;2.60;;
16270;SDS011;8243;49.048;8.396;2023-03-24T01:03:48;3.60;;;2.57;;
16270;SDS011;8243;49.048;8.396;2023-03-24T01:06:15;4.37;;;2.73;;
16270;SDS011;8243;49.048;8.396;2023-03-24T01:08:42;2.80;;;2.40;;
16270;SDS011;8243;49.048;8.396;2023-03-24T01:11:13;2.83;;;2.40;;
16270;SDS011;8243;49.048;8.396;2023-03-24T01:13:39;4.37;;;2.40;;
16270;SDS011;8243;49.048;8.396;2023-03-24T01:16:06;2.50;;;2.30;;
16270;SDS011;8243;49.048;8.396;2023-03-24T01:18:32;2.47;;;2.27;;
16270;SDS011;8243;49.048;8.396;2023-03-24T01:20:59;3.07;;;2.50;;
16270;SDS011;8243;49.048;8.396;2023-03-24T01:23:25;3.43;;;2.30;;
16270;SDS011;8243;49.048;8.396;2023-03-24T01:25:51;3.57;;;2.63;;
16270;SDS011;8243;49.048;8.396;2023-03-24T01:28:18;2.70;;;2.40;;
16270;SDS011;8243;49.048;8.396;2023-03-24T01:30:48;2.67;;;2.20;;
16270;SDS011;8243;49.048;8.396;2023-03-24T01:33:13;2.97;;;2.33;;
16270;SDS011;8243;49.048;8.396;2023-03-24T01:35:39;3.17;;;2.40;;
16270;SDS011;8243;49.048;8.396;2023-03-24T01:38:08;2.30;;;2.10;;
16270;SDS011;8243;49.048;8.396;2023-03-24T01:40:37;3.07;;;2.30;;
16270;SDS011;8243;49.048;8.396;2023-03-24T01:43:04;4.23;;;2.80;;
16270;SDS011;8243;49.048;8.396;2023-03-24T01:50:55;2.70;;;2.40;;
16270;SDS011;8243;49.048;8.396;2023-03-24T01:53:25;2.90;;;2.60;;
16270;SDS011;8243;49.048;8.396;2023-03-24T01:55:52;2.60;;;2.40;;
16270;SDS011;8243;49.048;8.396;2023-03-24T01:58:18;2.93;;;2.70;;
16270;SDS011;8243;49.048;8.396;2023-03-24T02:00:46;2.97;;;2.77;;
16270;SDS011;8243;49.048;8.396;2023-03-24T02:03:12;3.37;;;2.27;;
16270;SDS011;8243;49.048;8.396;2023-03-24T02:05:42;2.90;;;2.60;;
16270;SDS011;8243;49.048;8.396;2023-03-24T02:08:12;3.57;;;2.60;;
16270;SDS011;8243;49.048;8.396;2023-03-24T02:10:46;3.37;;;2.70;;
16270;SDS011;8243;49.048;8.396;2023-03-24T02:13:14;3.07;;;2.77;;
16270;SDS011;8243;49.048;8.396;2023-03-24T02:16:04;3.23;;;2.73;;
16270;SDS011;8243;49.048;8.396;2023-03-24T02:21:33;2.70;;;2.50;;
16270;SDS011;8243;49.048;8.396;2023-03-24T02:24:30;4.83;;;2.80;;
16270;SDS011;8243;49.048;8.396;2023-03-24T02:32:38;2.80;;;2.53;;
16270;SDS011;8243;49.048;8.396;2023-03-24T02:35:16;2.83;;;2.63;;
16270;SDS011;8243;49.048;8.396;2023-03-24T02:38:04;2.90;;;2.70;;
16270;SDS011;8243;49.048;8.396;2023-03-24T02:40:48;3.30;;;3.00;;
16270;SDS011;8243;49.048;8.396;2023-03-24T02:51:26;2.90;;;2.70;;
16270;SDS011;8243;49.048;8.396;2023-03-24T02:54:14;2.47;;;2.27;;
16270;SDS011;8243;49.048;8.396;2023-03-24T02:56:54;2.90;;;2.60;;
16270;SDS011;8243;49.048;8.396;2023-03-24T02:59:29;5.03;;;2.60;;
16270;SDS011;8243;49.048;8.396;2023-03-24T03:02:06;3.23;;;2.50;;
16270;SDS011;8243;49.048;8.396;2023-03-24T03:04:40;5.57;;;2.70;;
16270;SDS011;8243;49.048;8.396;2023-03-24T03:07:17;3.93;;;2.50;;
16270;SDS011;8243;49.048;8.396;2023-03-24T03:09:47;3.47;;;2.40;;
16270;SDS011;8243;49.048;8.396;2023-03-24T03:12:18;2.97;;;2.77;;
16270;SDS011;8243;49.048;8.396;2023-03-24T03:14:48;3.93;;;2.97;;
16270;SDS011;8243;49.048;8.396;2023-03-24T03:17:18;6.23;;;2.97;;
16270;SDS011;8243;49.048;8.396;2023-03-24T03:20:03;3.77;;;3.17;;
16270;SDS011;8243;49.048;8.396;2023-03-24T03:22:52;3.20;;;2.90;;
16270;SDS011;8243;49.048;8.396;2023-03-24T03:25:26;4.30;;;2.67;;
16270;SDS011;8243;49.048;8.396;2023-03-24T03:27:56;3.03;;;2.73;;
16270;SDS011;8243;49.048;8.396;2023-03-24T03:30:31;3.20;;;2.90;;
16270;SDS011;8243;49.048;8.396;2023-03-24T03:33:12;4.43;;;2.70;;
16270;SDS011;8243;49.048;8.396;2023-03-24T03:35:44;3.30;;;3.00;;
16270;SDS011;8243;49.048;8.396;2023-03-24T03:38:28;3.40;;;3.10;;
16270;SDS011;8243;49.048;8.396;2023-03-24T03:41:04;3.93;;;3.13;;
16270;SDS011;8243;49.048;8.396;2023-03-24T03:43:30;4.23;;;3.53;;
16270;SDS011;8243;49.048;8.396;2023-03-24T03:45:57;3.93;;;3.50;;
16270;SDS011;8243;49.048;8.396;2023-03-24T03:48:24;3.90;;;3.50;;
16270;SDS011;8243;49.048;8.396;2023-03-24T03:50:50;3.50;;;3.20;;
16270;SDS011;8243;49.048;8.396;2023-03-24T03:53:18;3.70;;;3.40;;
16270;SDS011;8243;49.048;8.396;2023-03-24T03:55:47;4.27;;;3.87;;
16270;SDS011;8243;49.048;8.396;2023-03-24T03:58:13;3.40;;;3.10;;
16270;SDS011;8243;49.048;8.396;2023-03-24T04:00:39;4.03;;;3.63;;
16270;SDS011;8243;49.048;8.396;2023-03-24T04:06:01;4.50;;;3.50;;
16270;SDS011;8243;49.048;8.396;2023-03-24T04:11:19;3.30;;;3.00;;
16270;SDS011;8243;49.048;8.396;2023-03-24T04:14:17;3.27;;;2.90;;
16270;SDS011;8243;49.048;8.396;2023-03-24T04:17:24;4.20;;;3.37;;
16270;SDS011;8243;49.048;8.396;2023-03-24T04:20:05;4.10;;;3.30;;
16270;SDS011;8243;49.048;8.396;2023-03-24T04:31:22;3.43;;;3.13;;
16270;SDS011;8243;49.048;8.396;2023-03-24T04:34:07;3.80;;;3.47;;
16270;SDS011;8243;49.048;8.396;2023-03-24T04:36:50;4.10;;;3.77;;
16270;SDS011;8243;49.048;8.396;2023-03-24T04:39:28;4.90;;;3.73;;
16270;SDS011;8243;49.048;8.396;2023-03-24T04:41:59;5.17;;;4.23;;
16270;SDS011;8243;49.048;8.396;2023-03-24T04:44:28;5.33;;;4.30;;
16270;SDS011;8243;49.048;8.396;2023-03-24T04:46:57;5.13;;;4.57;;
16270;SDS011;8243;49.048;8.396;2023-03-24T04:49:25;5.23;;;4.73;;
16270;SDS011;8243;49.048;8.396;2023-03-24T04:51:51;5.37;;;4.87;;
16270;SDS011;8243;49.048;8.396;2023-03-24T04:54:18;7.50;;;5.20;;
16270;SDS011;8243;49.048;8.396;2023-03-24T04:56:47;6.57;;;5.97;;
16270;SDS011;8243;49.048;8.396;2023-03-24T04:59:18;6.33;;;5.67;;
16270;SDS011;8243;49.048;8.396;2023-03-24T05:01:50;6.90;;;6.20;;
16270;SDS011;8243;49.048;8.396;2023-03-24T05:04:16;6.83;;;6.13;;
16270;SDS011;8243;49.048;8.396;2023-03-24T05:06:52;8.10;;;7.17;;
16270;SDS011;8243;49.048;8.396;2023-03-24T05:09:19;8.23;;;7.47;;
16270;SDS011;8243;49.048;8.396;2023-03-24T05:11:46;7.77;;;6.50;;
16270;SDS011;8243;49.048;8.396;2023-03-24T05:14:13;8.23;;;7.43;;
16270;SDS011;8243;49.048;8.396;2023-03-24T05:16:39;7.60;;;6.80;;
16270;SDS011;8243;49.048;8.396;2023-03-24T05:19:05;8.43;;;6.87;;
16270;SDS011;8243;49.048;8.396;2023-03-24T05:21:32;7.30;;;6.57;;
16270;SDS011;8243;49.048;8.396;2023-03-24T05:23:58;7.23;;;6.53;;
16270;SDS011;8243;49.048;8.396;2023-03-24T05:26:29;8.23;;;6.80;;
16270;SDS011;8243;49.048;8.396;2023-03-24T05:28:55;7.30;;;6.07;;
16270;SDS011;8243;49.048;8.396;2023-03-24T05:31:22;7.47;;;6.53;;
16270;SDS011;8243;49.048;8.396;2023-03-24T05:33:47;7.70;;;6.10;;
16270;SDS011;8243;49.048;8.396;2023-03-24T05:36:13;8.03;;;6.50;;
16270;SDS011;8243;49.048;8.396;2023-03-24T05:38:40;7.20;;;6.10;;
16270;SDS011;8243;49.048;8.396;2023-03-24T05:41:05;6.50;;;5.90;;
16270;SDS011;8243;49.048;8.396;2023-03-24T05:43:32;6.83;;;6.10;;
16270;SDS011;8243;49.048;8.396;2023-03-24T05:46:00;6.83;;;6.00;;
16270;SDS011;8243;49.048;8.396;2023-03-24T05:48:26;6.07;;;5.57;;
16270;SDS011;8243;49.048;8.396;2023-03-24T05:50:52;6.60;;;5.90;;
16270;SDS011;8243;49.048;8.396;2023-03-24T05:53:17;6.80;;;5.40;;
16270;SDS011;8243;49.048;8.396;2023-03-24T05:55:46;5.70;;;5.20;;
16270;SDS011;8243;49.048;8.396;2023-03-24T05:58:12;7.77;;;5.83;;
16270;SDS011;8243;49.048;8.396;2023-03-24T06:00:37;7.37;;;5.77;;
16270;SDS011;8243;49.048;8.396;2023-03-24T06:03:03;6.50;;;5.90;;
16270;SDS011;8243;49.048;8.396;2023-03-24T06:05:29;7.53;;;6.10;;
16270;SDS011;8243;49.048;8.396;2023-03-24T06:07:55;6.63;;;6.10;;
16270;SDS011;8243;49.048;8.396;2023-03-24T06:10:31;6.90;;;6.17;;
16270;SDS011;8243;49.048;8.396;2023-03-24T06:12:57;8.10;;;6.27;;
16270;SDS011;8243;49.048;8.396;2023-03-24T06:15:23;6.97;;;6.27;;
16270;SDS011;8243;49.048;8.396;2023-03-24T06:17:51;6.80;;;6.20;;
16270;SDS011;8243;49.048;8.396;2023-03-24T06:20:19;7.70;;;6.00;;
16270;SDS011;8243;49.048;8.396;2023-03-24T06:22:45;8.03;;;6.13;;
16270;SDS011;8243;49.048;8.396;2023-03-24T06:25:11;6.03;;;5.43;;
16270;SDS011;8243;49.048;8.396;2023-03-24T06:27:43;5.90;;;5.40;;
16270;SDS011;8243;49.048;8.396;2023-03-24T06:30:15;6.30;;;4.93;;
16270;SDS011;8243;49.048;8.396;2023-03-24T06:32:42;5.40;;;4.90;;
16270;SDS011;8243;49.048;8.396;2023-03-24T06:35:10;8.43;;;5.70;;
16270;SDS011;8243;49.048;8.396;2023-03-24T06:37:41;6.10;;;5.50;;
16270;SDS011;8243;49.048;8.396;2023-03-24T06:40:07;6.80;;;5.37;;
16270;SDS011;8243;49.048;8.396;2023-03-24T06:42:36;6.70;;;6.00;;
16270;SDS011;8243;49.048;8.396;2023-03-24T06:45:02;6.30;;;5.70;;
16270;SDS011;8243;49.048;8.396;2023-03-24T06:47:28;6.40;;;5.83;;
16270;SDS011;8243;49.048;8.396;2023-03-24T06:49:54;7.53;;;5.60;;
16270;SDS011;8243;49.048;8.396;2023-03-24T06:52:20;6.57;;;5.97;;
16270;SDS011;8243;49.048;8.396;2023-03-24T06:54:51;6.93;;;5.73;;
16270;SDS011;8243;49.048;8.396;2023-03-24T06:57:17;6.23;;;5.43;;
16270;SDS011;8243;49.048;8.396;2023-03-24T06:59:42;5.83;;;5.23;;
16270;SDS011;8243;49.048;8.396;2023-03-24T07:02:09;9.37;;;6.10;;
16270;SDS011;8243;49.048;8.396;2023-03-24T07:04:36;6.13;;;5.47;;
16270;SDS011;8243;49.048;8.396;2023-03-24T07:07:02;7.37;;;5.37;;
16270;SDS011;8243;49.048;8.396;2023-03-24T07:09:28;5.70;;;5.20;;
16270;SDS011;8243;49.048;8.396;2023-03-24T07:11:54;6.30;;;5.70;;
16270;SDS011;8243;49.048;8.396;2023-03-24T07:14:21;6.13;;;5.23;;
16270;SDS011;8243;49.048;8.396;2023-03-24T07:16:50;7.13;;;5.07;;
16270;SDS011;8243;49.048;8.396;2023-03-24T07:19:16;6.77;;;6.03;;
16270;SDS011;8243;49.048;8.396;2023-03-24T07:21:42;6.53;;;5.50;;
16270;SDS011;8243;49.048;8.396;2023-03-24T07:24:08;7.67;;;5.87;;
16270;SDS011;8243;49.048;8.396;2023-03-24T07:26:33;6.50;;;5.90;;
16270;SDS011;8243;49.048;8.396;2023-03-24T07:28:59;8.67;;;6.40;;
16270;SDS011;8243;49.048;8.396;2023-03-24T07:31:24;6.40;;;5.80;;
16270;SDS011;8243;49.048;8.396;2023-03-24T07:33:50;8.27;;;5.87;;
16270;SDS011;8243;49.048;8.396;2023-03-24T07:36:15;6.63;;;6.00;;
16270;SDS011;8243;49.048;8.396;2023-03-24T07:38:41;10.37;;;5.90;;
16270;SDS011;8243;49.048;8.396;2023-03-24T07:41:08;8.57;;;6.60;;
16270;SDS011;8243;49.048;8.396;2023-03-24T07:43:33;6.73;;;6.03;;
16270;SDS011;8243;49.048;8.396;2023-03-24T07:45:59;8.27;;;6.37;;
16270;SDS011;8243;49.048;8.396;2023-03-24T07:48:25;6.13;;;5.63;;
16270;SDS011;8243;49.048;8.396;2023-03-24T07:50:51;6.97;;;6.00;;
16270;SDS011;8243;49.048;8.396;2023-03-24T07:53:17;6.23;;;5.63;;
16270;SDS011;8243;49.048;8.396;2023-03-24T07:55:44;5.60;;;5.10;;
16270;SDS011;8243;49.048;8.396;2023-03-24T07:58:09;5.33;;;4.77;;
16270;SDS011;8243;49.048;8.396;2023-03-24T08:00:35;5.07;;;4.57;;
16270;SDS011;8243;49.048;8.396;2023-03-24T08:03:02;5.67;;;4.33;;
16270;SDS011;8243;49.048;8.396;2023-03-24T08:05:28;5.23;;;4.30;;
16270;SDS011;8243;49.048;8.396;2023-03-24T08:07:54;4.47;;;4.10;;
16270;SDS011;8243;49.048;8.396;2023-03-24T08:10:23;5.30;;;4.50;;
16270;SDS011;8243;49.048;8.396;2023-03-24T08:12:51;4.27;;;3.97;;
16270;SDS011;8243;49.048;8.396;2023-03-24T08:15:17;4.27;;;3.87;;
16270;SDS011;8243;49.048;8.396;2023-03-24T08:17:42;4.13;;;3.70;;
16270;SDS011;8243;49.048;8.396;2023-03-24T08:20:09;4.27;;;3.87;;
16270;SDS011;8243;49.048;8.396;2023-03-24T08:22:40;4.33;;;3.93;;
16270;SDS011;8243;49.048;8.396;2023-03-24T08:25:09;4.07;;;3.77;;
16270;SDS011;8243;49.048;8.396;2023-03-24T08:27:36;3.57;;;3.13;;
16270;SDS011;8243;49.048;8.396;2023-03-24T08:30:04;3.90;;;3.50;;
16270;SDS011;8243;49.048;8.396;2023-03-24T08:32:31;4.37;;;3.40;;
16270;SDS011;8243;49.048;8.396;2023-03-24T08:34:57;3.40;;;3.10;;
16270;SDS011;8243;49.048;8.396;2023-03-24T08:37:22;4.27;;;3.40;;
16270;SDS011;8243;49.048;8.396;2023-03-24T08:39:48;3.17;;;2.87;;
16270;SDS011;8243;49.048;8.396;2023-03-24T08:42:14;5.27;;;3.10;;
16270;SDS011;8243;49.048;8.396;2023-03-24T08:44:40;3.20;;;2.90;;
16270;SDS011;8243;49.048;8.396;2023-03-24T08:47:06;2.97;;;2.77;;
16270;SDS011;8243;49.048;8.396;2023-03-24T08:49:31;4.93;;;3.40;;
16270;SDS011;8243;49.048;8.396;2023-03-24T08:51:57;2.77;;;2.53;;
16270;SDS011;8243;49.048;8.396;2023-03-24T08:54:23;2.83;;;2.63;;
16270;SDS011;8243;49.048;8.396;2023-03-24T08:56:50;2.87;;;2.67;;
16270;SDS011;8243;49.048;8.396;2023-03-24T08:59:16;2.83;;;2.53;;
16270;SDS011;8243;49.048;8.396;2023-03-24T09:01:42;3.87;;;2.80;;
16270;SDS011;8243;49.048;8.396;2023-03-24T09:04:08;3.33;;;2.73;;
16270;SDS011;8243;49.048;8.396;2023-03-24T09:06:33;2.57;;;2.37;;
16270;SDS011;8243;49.048;8.396;2023-03-24T09:08:59;3.00;;;2.60;;
16270;SDS011;8243;49.048;8.396;2023-03-24T09:11:25;2.73;;;2.53;;
16270;SDS011;8243;49.048;8.396;2023-03-24T09:13:50;4.20;;;2.57;;
16270;SDS011;8243;49.048;8.396;2023-03-24T09:16:16;3.03;;;2.77;;
16270;SDS011;8243;49.048;8.396;2023-03-24T09:18:42;3.53;;;2.40;;
16270;SDS011;8243;49.048;8.396;2023-03-24T09:21:09;3.07;;;2.77;;
16270;SDS011;8243;49.048;8.396;2023-03-24T09:23:35;4.33;;;2.87;;
16270;SDS011;8243;49.048;8.396;2023-03-24T09:26:01;3.47;;;2.87;;
16270;SDS011;8243;49.048;8.396;2023-03-24T09:28:27;2.73;;;2.53;;
16270;SDS011;8243;49.048;8.396;2023-03-24T09:30:58;4.57;;;3.57;;
16270;SDS011;8243;49.048;8.396;2023-03-24T09:33:26;4.40;;;3.20;;
16270;SDS011;8243;49.048;8.396;2023-03-24T09:35:54;3.20;;;2.90;;
16270;SDS011;8243;49.048;8.396;2023-03-24T09:38:22;3.20;;;3.00;;
16270;SDS011;8243;49.048;8.396;2023-03-24T09:40:50;3.10;;;2.90;;
16270;SDS011;8243;49.048;8.396;2023-03-24T09:43:29;3.67;;;3.00;;
16270;SDS011;8243;49.048;8.396;2023-03-24T09:46:10;2.80;;;2.50;;
16270;SDS011;8243;49.048;8.396;2023-03-24T09:48:41;3.10;;;2.60;;
16270;SDS011;8243;49.048;8.396;2023-03-24T09:56:44;2.97;;;2.70;;
16270;SDS011;8243;49.048;8.396;2023-03-24T10:02:00;2.43;;;2.17;;
16270;SDS011;8243;49.048;8.396;2023-03-24T10:04:28;2.50;;;2.30;;
16270;SDS011;8243;49.048;8.396;2023-03-24T10:07:00;2.70;;;2.40;;
16270;SDS011;8243;49.048;8.396;2023-03-24T10:09:43;3.07;;;2.27;;
16270;SDS011;8243;49.048;8.396;2023-03-24T10:28:19;2.50;;;2.30;;
16270;SDS011;8243;49.048;8.396;2023-03-24T10:31:04;2.67;;;2.40;;
16270;SDS011;8243;49.048;8.396;2023-03-24T10:33:39;2.70;;;2.47;;
16270;SDS011;8243;49.048;8.396;2023-03-24T10:36:08;2.60;;;2.40;;
16270;SDS011;8243;49.048;8.396;2023-03-24T10:38:37;2.67;;;2.10;;
16270;SDS011;8243;49.048;8.396;2023-03-24T10:41:03;3.50;;;2.30;;
16270;SDS011;8243;49.048;8.396;2023-03-24T10:43:29;2.47;;;2.27;;
16270;SDS011;8243;49.048;8.396;2023-03-24T10:45:56;2.40;;;2.10;;
16270;SDS011;8243;49.048;8.396;2023-03-24T10:51:12;3.00;;;2.70;;
16270;SDS011;8243;49.048;8.396;2023-03-24T10:53:45;4.07;;;2.93;;
16270;SDS011;8243;49.048;8.396;2023-03-24T10:56:47;3.87;;;3.57;;
16270;SDS011;8243;49.048;8.396;2023-03-24T10:59:36;4.07;;;3.57;;
16270;SDS011;8243;49.048;8.396;2023-03-24T11:02:21;4.33;;;3.63;;
16270;SDS011;8243;49.048;8.396;2023-03-24T11:07:31;3.73;;;3.00;;
16270;SDS011;8243;49.048;8.396;2023-03-24T11:12:37;3.03;;;2.70;;
16270;SDS011;8243;49.048;8.396;2023-03-24T11:15:32;3.57;;;2.60;;
16270;SDS011;8243;49.048;8.396;2023-03-24T11:18:13;2.33;;;2.13;;
16270;SDS011;8243;49.048;8.396;2023-03-24T11:20:51;2.60;;;2.40;;
16270;SDS011;8243;49.048;8.396;2023-03-24T11:26:11;3.57;;;2.23;;
16270;SDS011;8243;49.048;8.396;2023-03-24T11:28:51;3.33;;;2.40;;
16270;SDS011;8243;49.048;8.396;2023-03-24T11:31:29;2.50;;;2.30;;
16270;SDS011;8243;49.048;8.396;2023-03-24T11:36:58;2.80;;;2.17;;
16270;SDS011;8243;49.048;8.396;2023-03-24T11:39:38;3.00;;;2.40;;
16270;SDS011;8243;49.048;8.396;2023-03-24T11:42:12;2.80;;;1.80;;
16270;SDS011;8243;49.048;8.396;2023-03-24T11:44:42;2.00;;;1.90;;
16270;SDS011;8243;49.048;8.396;2023-03-24T11:50:00;3.70;;;1.80;;
16270;SDS011;8243;49.048;8.396;2023-03-24T11:52:52;4.00;;;1.60;;
16270;SDS011;8243;49.048;8.396;2023-03-24T11:55:31;3.90;;;1.47;;
16270;SDS011;8243;49.048;8.396;2023-03-24T12:00:42;3.90;;;1.40;;
16270;SDS011;8243;49.048;8.396;2023-03-24T12:06:05;5.03;;;1.60;;
16270;SDS011;8243;49.048;8.396;2023-03-24T12:08:55;3.00;;;1.80;;
16270;SDS011;8243;49.048;8.396;2023-03-24T12:11:37;4.23;;;1.77;;
16270;SDS011;8243;49.048;8.396;2023-03-24T12:14:34;3.40;;;1.73;;
16270;SDS011;8243;49.048;8.396;2023-03-24T12:17:12;3.23;;;1.60;;
16270;SDS011;8243;49.048;8.396;2023-03-24T12:22:13;2.43;;;1.80;;
16270;SDS011;8243;49.048;8.396;2023-03-24T12:27:49;3.33;;;1.80;;
16270;SDS011;8243;49.048;8.396;2023-03-24T12:30:45;3.23;;;1.53;;
16270;SDS011;8243;49.048;8.396;2023-03-24T12:33:31;5.17;;;1.83;;
16270;SDS011;8243;49.048;8.396;2023-03-24T12:41:42;4.37;;;1.40;;
16270;SDS011;8243;49.048;8.396;2023-03-24T12:44:35;2.57;;;1.73;;
16270;SDS011;8243;49.048;8.396;2023-03-24T12:53:00;4.97;;;2.10;;
16270;SDS011;8243;49.048;8.396;2023-03-24T12:55:29;4.53;;;1.60;;
16270;SDS011;8243;49.048;8.396;2023-03-24T12:58:21;3.23;;;1.40;;
16270;SDS011;8243;49.048;8.396;2023-03-24T13:00:57;2.23;;;1.73;;
16270;SDS011;8243;49.048;8.396;2023-03-24T13:05:57;5.57;;;1.70;;
16270;SDS011;8243;49.048;8.396;2023-03-24T13:08:28;4.73;;;1.70;;
16270;SDS011;8243;49.048;8.396;2023-03-24T13:10:59;5.30;;;1.70;;
16270;SDS011;8243;49.048;8.396;2023-03-24T13:13:32;2.27;;;1.70;;
16270;SDS011;8243;49.048;8.396;2023-03-24T13:16:03;4.37;;;2.03;;
16270;SDS011;8243;49.048;8.396;2023-03-24T13:18:42;5.37;;;2.10;;
16270;SDS011;8243;49.048;8.396;2023-03-24T13:21:09;4.07;;;1.90;;
16270;SDS011;8243;49.048;8.396;2023-03-24T13:29:28;3.57;;;1.90;;
16270;SDS011;8243;49.048;8.396;2023-03-24T13:32:08;3.37;;;2.03;;
16270;SDS011;8243;49.048;8.396;2023-03-24T13:34:46;4.47;;;2.10;;
16270;SDS011;8243;49.048;8.396;2023-03-24T13:37:14;5.03;;;2.00;;
16270;SDS011;8243;49.048;8.396;2023-03-24T13:39:44;5.20;;;2.00;;
16270;SDS011;8243;49.048;8.396;2023-03-24T13:42:28;4.47;;;2.30;;
16270;SDS011;8243;49.048;8.396;2023-03-24T13:45:02;5.20;;;2.00;;
16270;SDS011;8243;49.048;8.396;2023-03-24T13:50:20;4.13;;;1.80;;
16270;SDS011;8243;49.048;8.396;2023-03-24T13:52:47;5.43;;;1.90;;
16270;SDS011;8243;49.048;8.396;2023-03-24T13:55:20;8.33;;;2.10;;
16270;SDS011;8243;49.048;8.396;2023-03-24T13:57:59;3.63;;;1.97;;
16270;SDS011;8243;49.048;8.396;2023-03-24T14:00:32;4.93;;;1.90;;
16270;SDS011;8243;49.048;8.396;2023-03-24T14:14:15;4.40;;;1.83;;
16270;SDS011;8243;49.048;8.396;2023-03-24T14:19:30;4.57;;;2.07;;
16270;SDS011;8243;49.048;8.396;2023-03-24T14:24:35;3.13;;;2.00;;
16270;SDS011;8243;49.048;8.396;2023-03-24T14:27:19;3.63;;;1.80;;
16270;SDS011;8243;49.048;8.396;2023-03-24T14:29:50;3.60;;;2.13;;
16270;SDS011;8243;49.048;8.396;2023-03-24T14:32:17;3.50;;;1.87;;
16270;SDS011;8243;49.048;8.396;2023-03-24T14:35:04;4.80;;;2.00;;
16270;SDS011;8243;49.048;8.396;2023-03-24T14:37:53;3.03;;;1.80;;
16270;SDS011;8243;49.048;8.396;2023-03-24T14:40:26;2.50;;;1.83;;
16270;SDS011;8243;49.048;8.396;2023-03-24T14:43:02;3.93;;;2.27;;
16270;SDS011;8243;49.048;8.396;2023-03-24T14:45:40;5.97;;;3.20;;
16270;SDS011;8243;49.048;8.396;2023-03-24T14:50:54;3.03;;;2.00;;
16270;SDS011;8243;49.048;8.396;2023-03-24T14:53:28;3.80;;;2.00;;
16270;SDS011;8243;49.048;8.396;2023-03-24T14:55:54;2.90;;;1.70;;
16270;SDS011;8243;49.048;8.396;2023-03-24T14:58:26;2.63;;;1.50;;
16270;SDS011;8243;49.048;8.396;2023-03-24T15:00:59;2.27;;;1.50;;
16270;SDS011;8243;49.048;8.396;2023-03-24T15:03:33;1.80;;;1.47;;
16270;SDS011;8243;49.048;8.396;2023-03-24T15:08:43;3.00;;;1.40;;
16270;SDS011;8243;49.048;8.396;2023-03-24T15:11:21;1.67;;;1.43;;
16270;SDS011;8243;49.048;8.396;2023-03-24T15:13:50;3.57;;;1.70;;
16270;SDS011;8243;49.048;8.396;2023-03-24T15:16:21;1.20;;;1.10;;
16270;SDS011;8243;49.048;8.396;2023-03-24T15:18:58;3.47;;;1.40;;
16270;SDS011;8243;49.048;8.396;2023-03-24T15:21:32;3.03;;;1.50;;
16270;SDS011;8243;49.048;8.396;2023-03-24T15:23:58;2.93;;;1.43;;
16270;SDS011;8243;49.048;8.396;2023-03-24T15:26:28;1.87;;;1.40;;
16270;SDS011;8243;49.048;8.396;2023-03-24T15:29:04;4.17;;;2.90;;
16270;SDS011;8243;49.048;8.396;2023-03-24T15:31:30;8.03;;;5.27;;
16270;SDS011;8243;49.048;8.396;2023-03-24T15:34:01;4.77;;;3.77;;
16270;SDS011;8243;49.048;8.396;2023-03-24T15:36:38;2.10;;;1.90;;
16270;SDS011;8243;49.048;8.396;2023-03-24T15:39:17;1.77;;;1.50;;
16270;SDS011;8243;49.048;8.396;2023-03-24T15:41:44;2.40;;;1.63;;
16270;SDS011;8243;49.048;8.396;2023-03-24T15:44:15;2.30;;;1.90;;
16270;SDS011;8243;49.048;8.396;2023-03-24T15:46:43;2.47;;;1.60;;
16270;SDS011;8243;49.048;8.396;2023-03-24T15:49:32;1.50;;;1.40;;
16270;SDS011;8243;49.048;8.396;2023-03-24T15:51:59;1.73;;;1.40;;
16270;SDS011;8243;49.048;8.396;2023-03-24T15:54:30;1.80;;;1.60;;
16270;SDS011;8243;49.048;8.396;2023-03-24T15:59:48;2.43;;;2.20;;
16270;SDS011;8243;49.048;8.396;2023-03-24T16:02:25;2.07;;;1.87;;
16270;SDS011;8243;49.048;8.396;2023-03-24T16:04:57;6.57;;;4.00;;
16270;SDS011;8243;49.048;8.396;2023-03-24T16:07:32;2.73;;;2.30;;
16270;SDS011;8243;49.048;8.396;2023-03-24T16:10:00;1.77;;;1.40;;
16270;SDS011;8243;49.048;8.396;2023-03-24T16:12:31;1.33;;;1.23;;
16270;SDS011;8243;49.048;8.396;2023-03-24T16:14:58;2.13;;;1.30;;
16270;SDS011;8243;49.048;8.396;2023-03-24T16:17:23;1.73;;;1.40;;
16270;SDS011;8243;49.048;8.396;2023-03-24T16:19:49;2.67;;;1.70;;
16270;SDS011;8243;49.048;8.396;2023-03-24T16:22:15;3.13;;;1.30;;
16270;SDS011;8243;49.048;8.396;2023-03-24T16:24:40;1.50;;;1.40;;
16270;SDS011;8243;49.048;8.396;2023-03-24T16:27:07;2.60;;;1.33;;
16270;SDS011;8243;49.048;8.396;2023-03-24T16:29:35;4.13;;;1.70;;
16270;SDS011;8243;49.048;8.396;2023-03-24T16:32:00;1.60;;;1.50;;
16270;SDS011;8243;49.048;8.396;2023-03-24T16:34:26;1.27;;;1.17;;
16270;SDS011;8243;49.048;8.396;2023-03-24T16:36:52;1.10;;;1.03;;
16270;SDS011;8243;49.048;8.396;2023-03-24T16:39:22;1.57;;;1.20;;
16270;SDS011;8243;49.048;8.396;2023-03-24T16:41:50;2.50;;;1.47;;
16270;SDS011;8243;49.048;8.396;2023-03-24T16:44:15;2.03;;;1.53;;
16270;SDS011;8243;49.048;8.396;2023-03-24T16:46:41;2.70;;;1.40;;
16270;SDS011;8243;49.048;8.396;2023-03-24T16:49:10;1.40;;;1.30;;
16270;SDS011;8243;49.048;8.396;2023-03-24T16:51:38;2.10;;;1.40;;
16270;SDS011;8243;49.048;8.396;2023-03-24T16:54:03;1.67;;;1.47;;
16270;SDS011;8243;49.048;8.396;2023-03-24T16:56:29;1.37;;;1.23;;
16270;SDS011;8243;49.048;8.396;2023-03-24T16:58:55;2.10;;;1.40;;
16270;SDS011;8243;49.048;8.396;2023-03-24T17:01:34;2.97;;;1.70;;
16270;SDS011;8243;49.048;8.396;2023-03-24T17:06:44;1.40;;;1.30;;
16270;SDS011;8243;49.048;8.396;2023-03-24T17:09:14;1.77;;;1.60;;
16270;SDS011;8243;49.048;8.396;2023-03-24T17:11:41;2.50;;;1.50;;
16270;SDS011;8243;49.048;8.396;2023-03-24T17:14:09;1.40;;;1.30;;
16270;SDS011;8243;49.048;8.396;2023-03-24T17:16:39;1.87;;;1.40;;
16270;SDS011;8243;49.048;8.396;2023-03-24T17:19:10;2.33;;;1.67;;
16270;SDS011;8243;49.048;8.396;2023-03-24T17:21:39;3.33;;;1.60;;
16270;SDS011;8243;49.048;8.396;2023-03-24T17:24:26;1.77;;;1.67;;
16270;SDS011;8243;49.048;8.396;2023-03-24T17:26:53;2.63;;;1.50;;
16270;SDS011;8243;49.048;8.396;2023-03-24T17:29:18;1.50;;;1.40;;
16270;SDS011;8243;49.048;8.396;2023-03-24T17:31:44;2.00;;;1.50;;
16270;SDS011;8243;49.048;8.396;2023-03-24T17:34:10;2.33;;;1.50;;
16270;SDS011;8243;49.048;8.396;2023-03-24T17:36:37;2.23;;;1.87;;
16270;SDS011;8243;49.048;8.396;2023-03-24T17:39:03;2.63;;;1.80;;
16270;SDS011;8243;49.048;8.396;2023-03-24T17:41:29;1.80;;;1.70;;